메인 페이지
METAR-TAF:

METAR-TAF

공항 :

퍼스 공항

퍼스, 오스트레일리아

위도: 31-56S, 경도: 115-57E, 고도: 20m

현재 날씨관측

예보는 34분 전, 04:30시(UTC)에 발표되었습니다.
남남서10kt
온도 33°C
습도 24%
기압 1015 hPa
시정 10km 이상
1500m 미만 상공 구름 및 적란운 없음

METAR: YPPH 150430Z 21010KT CAVOK 33/10 Q1015 NOSIG

시각: 13:04 (05:04 UTC)

예보

예보는 5 시간 59분 전, 23:05시(UTC)에 발표되었습니다.
예보 대상 시간: 15일 00시부터 16일 06시까지 (UTC)
남동5kt
시정 10km 이상
1500m 미만 상공 구름 및 적란운 없음
15일 0300시부터 (UTC)
남서14kt
시정 10km 이상
1500m 미만 상공 구름 및 적란운 없음
15일 1000시부터 (UTC)
12kt
시정 10km 이상
1500m 미만 상공 구름 및 적란운 없음
15일 1400시부터 (UTC)
14kt, 순간 최대 풍속 24kt
시정 10km 이상
1500m 미만 상공 구름 및 적란운 없음
16일 0200시부터 (UTC)
동북동10kt
시정 10km 이상
1500m 미만 상공 구름 및 적란운 없음

TAF: YPPH 142305Z 1500/1606 14005KT CAVOK FM150300 23014KT CAVOK FM151000 19012KT CAVOK FM151400 10014G24KT CAVOK FM160200 06010KT CAVOK

4,000개 이상의 공항 관측 자료 및 예보 (METAR 및 TAF 보고).

지도상에서 검색 가능한 기상관측소가 노란 점과 빨간 점으로 표시되어 있습니다.

기상관측소 명을 보려면 표시 위로 마우스를 이동하세요.

날씨 관측과 예보를 보려면 클릭하세요.

지도 변경 : 확대하려면 엑스 표시가 있는 녹색 버튼, 축소하려면 빼기 표시가 있는 녹색 버튼, 다음 페이지의 지도를 보려면 녹색 화살표를 클릭하세요.


METAR-TAF: